createdAt,value
2022-09-12T00:01:15.167Z,29.36
2022-09-12T00:03:19.150Z,29.96
2022-09-12T00:05:23.405Z,30.66
2022-09-12T00:07:26.809Z,30.07
2022-09-12T00:09:30.187Z,30.22
2022-09-12T00:11:36.105Z,30.18
2022-09-12T00:13:41.883Z,30.05
2022-09-12T00:15:46.678Z,30.35
2022-09-12T00:17:50.456Z,31.25
2022-09-12T00:19:54.452Z,30.72
2022-09-12T00:21:58.136Z,30.73
2022-09-12T00:24:01.790Z,31.13
2022-09-12T00:26:07.175Z,31.57
2022-09-12T00:28:11.089Z,30.90
2022-09-12T00:30:15.771Z,31.68
2022-09-12T00:32:21.561Z,32.46
2022-09-12T00:34:25.352Z,31.53
2022-09-12T00:36:30.136Z,32.11
2022-09-12T00:38:34.141Z,32.68
2022-09-12T00:40:37.733Z,32.55
2022-09-12T00:42:41.330Z,32.52
2022-09-12T00:44:46.169Z,32.60
2022-09-12T00:46:52.489Z,32.65
2022-09-12T00:49:04.522Z,33.47
2022-09-12T00:51:08.818Z,34.72
2022-09-12T00:53:13.502Z,32.84
2022-09-12T00:55:33.338Z,32.83
2022-09-12T00:57:45.186Z,35.03
2022-09-12T00:59:54.662Z,33.56
2022-09-12T01:01:58.509Z,34.30
2022-09-12T01:04:03.086Z,36.67
2022-09-12T01:06:06.656Z,34.70
2022-09-12T01:08:13.037Z,34.31
2022-09-12T01:10:17.194Z,34.65
2022-09-12T01:12:20.750Z,34.96
2022-09-12T01:14:24.964Z,35.91
2022-09-12T01:16:28.975Z,35.44
2022-09-12T01:18:51.399Z,37.44
2022-09-12T01:21:13.674Z,41.24
2022-09-12T01:23:32.227Z,40.26
2022-09-12T01:25:47.054Z,40.22
2022-09-12T01:28:02.751Z,40.34
2022-09-12T01:30:21.923Z,39.56
2022-09-12T01:32:38.900Z,43.70
2022-09-12T01:35:00.414Z,43.66
2022-09-12T01:37:14.028Z,45.03
2022-09-12T01:39:23.564Z,43.43
2022-09-12T01:41:36.964Z,45.84
2022-09-12T01:43:50.135Z,45.38
2022-09-12T01:45:56.059Z,45.46
2022-09-12T01:48:07.358Z,46.48
2022-09-12T01:50:22.810Z,47.14
2022-09-12T01:52:26.508Z,49.65
2022-09-12T01:54:49.143Z,52.15
2022-09-12T01:56:55.097Z,50.34
2022-09-12T01:59:10.050Z,52.56
2022-09-12T02:01:19.829Z,53.72
2022-09-12T02:03:29.260Z,53.00
2022-09-12T02:05:39.132Z,55.71
2022-09-12T02:07:52.805Z,54.77
2022-09-12T02:10:01.422Z,55.31
2022-09-12T02:12:07.554Z,58.27
2022-09-12T02:14:19.550Z,57.87
2022-09-12T02:16:25.777Z,57.07
2022-09-12T02:18:31.507Z,54.08
2022-09-12T02:20:54.877Z,56.11
2022-09-12T02:23:02.377Z,56.99
2022-09-12T02:25:08.722Z,54.46
2022-09-12T02:27:27.506Z,55.41
2022-09-12T02:29:31.336Z,55.41
2022-09-12T02:31:35.742Z,55.55
2022-09-12T02:33:48.451Z,56.59
2022-09-12T02:35:59.796Z,58.52
2022-09-12T02:38:11.813Z,59.76
2022-09-12T02:40:16.317Z,58.30
2022-09-12T02:42:19.811Z,61.90
2022-09-12T02:44:24.987Z,60.30
2022-09-12T02:46:33.858Z,61.69
2022-09-12T02:48:42.090Z,67.46
2022-09-12T02:50:46.417Z,68.07
2022-09-12T02:52:51.453Z,70.49
2022-09-12T02:54:56.364Z,67.92
2022-09-12T02:57:00.053Z,68.01
2022-09-12T02:59:05.791Z,66.53
2022-09-12T03:01:24.826Z,68.94
2022-09-12T03:03:41.355Z,68.21
2022-09-12T03:06:13.281Z,65.94
2022-09-12T03:08:30.707Z,67.91
2022-09-12T03:10:38.679Z,67.16
2022-09-12T03:12:45.672Z,64.82
2022-09-12T03:15:11.983Z,66.87
2022-09-12T03:17:19.046Z,67.15
2022-09-12T03:19:25.862Z,62.00
2022-09-12T03:21:55.590Z,61.12
2022-09-12T03:24:10.297Z,58.39
2022-09-12T03:26:17.613Z,59.82
2022-09-12T03:28:23.047Z,56.40
2022-09-12T03:30:27.242Z,56.60
2022-09-12T03:32:42.941Z,60.77
2022-09-12T03:34:46.737Z,61.22
2022-09-12T03:36:50.942Z,57.51
2022-09-12T03:38:55.033Z,55.51
2022-09-12T03:40:58.922Z,52.69
2022-09-12T03:43:02.720Z,51.84
2022-09-12T03:45:08.532Z,50.70
2022-09-12T03:47:13.229Z,50.42
2022-09-12T03:49:16.850Z,50.77
2022-09-12T03:51:20.471Z,51.21
2022-09-12T03:53:23.930Z,49.16
2022-09-12T03:55:28.078Z,49.99
2022-09-12T03:57:31.867Z,50.70
2022-09-12T03:59:36.709Z,49.60
2022-09-12T04:01:41.808Z,50.82
2022-09-12T04:03:50.096Z,51.79
2022-09-12T04:05:53.757Z,51.36
2022-09-12T04:07:57.391Z,52.75
2022-09-12T04:10:00.850Z,51.83
2022-09-12T04:12:05.351Z,52.54
2022-09-12T04:14:09.088Z,56.38
2022-09-12T04:16:14.497Z,56.84
2022-09-12T04:18:18.610Z,56.30
2022-09-12T04:20:24.173Z,58.42
2022-09-12T04:22:33.144Z,63.56
2022-09-12T04:24:37.068Z,65.18
2022-09-12T04:26:40.815Z,65.08
2022-09-12T04:28:44.604Z,67.67
2022-09-12T04:30:48.444Z,68.73
2022-09-12T04:32:52.643Z,68.45
2022-09-12T04:34:56.145Z,68.80
2022-09-12T04:36:59.416Z,68.72
2022-09-12T04:39:04.311Z,68.71
2022-09-12T04:41:25.089Z,71.24
2022-09-12T04:43:28.887Z,70.44
2022-09-12T04:45:32.331Z,73.28
2022-09-12T04:47:36.639Z,72.64
2022-09-12T04:49:39.943Z,73.86
2022-09-12T04:51:44.248Z,75.01
2022-09-12T04:53:53.198Z,72.40
2022-09-12T04:55:56.838Z,72.57
2022-09-12T04:58:00.728Z,74.88
2022-09-12T05:00:07.521Z,70.46
2022-09-12T05:02:11.547Z,69.44
2022-09-12T05:04:15.786Z,71.53
2022-09-12T05:06:21.054Z,70.36
2022-09-12T05:08:24.727Z,70.42
2022-09-12T05:10:29.477Z,70.57
2022-09-12T05:12:33.591Z,68.27
2022-09-12T05:14:38.095Z,71.52
2022-09-12T05:16:45.061Z,72.44
2022-09-12T05:18:51.259Z,74.29
2022-09-12T05:20:55.312Z,74.67
2022-09-12T05:22:59.758Z,73.97
2022-09-12T05:25:04.056Z,77.02
2022-09-12T05:27:08.345Z,77.42
2022-09-12T05:29:11.760Z,76.59
2022-09-12T05:31:15.103Z,77.05
2022-09-12T05:33:24.485Z,77.98
2022-09-12T05:35:28.805Z,78.76
2022-09-12T05:37:32.681Z,81.03
2022-09-12T05:39:36.499Z,79.86
2022-09-12T05:41:40.115Z,79.75
2022-09-12T05:43:44.800Z,82.33
2022-09-12T05:45:48.450Z,83.14
2022-09-12T05:47:52.170Z,84.80
2022-09-12T05:49:56.241Z,85.38
2022-09-12T05:51:59.702Z,85.24
2022-09-12T05:54:07.213Z,84.17
2022-09-12T05:56:12.610Z,85.01
2022-09-12T05:58:16.366Z,88.72
2022-09-12T06:00:21.669Z,87.24
2022-09-12T06:02:25.439Z,87.40
2022-09-12T06:04:29.192Z,88.48
2022-09-12T06:06:34.050Z,88.23
2022-09-12T06:08:37.839Z,88.85
2022-09-12T06:10:41.681Z,90.44
2022-09-12T06:12:45.555Z,90.35
2022-09-12T06:14:49.205Z,87.43
2022-09-12T06:16:53.024Z,89.70
2022-09-12T06:18:59.160Z,90.66
2022-09-12T06:21:06.314Z,92.10
2022-09-12T06:23:10.044Z,91.86
2022-09-12T06:25:13.769Z,90.24
2022-09-12T06:27:20.129Z,91.44
2022-09-12T06:29:23.594Z,90.07
2022-09-12T06:31:32.322Z,89.64
2022-09-12T06:33:36.692Z,88.56
2022-09-12T06:35:41.042Z,88.78
2022-09-12T06:37:49.588Z,89.67
2022-09-12T06:39:53.314Z,92.25
2022-09-12T06:41:56.971Z,93.84
2022-09-12T06:44:13.150Z,97.04
2022-09-12T06:46:16.909Z,98.62
2022-09-12T06:48:23.187Z,98.55
2022-09-12T06:50:26.888Z,100.00
2022-09-12T06:52:30.612Z,100.00
2022-09-12T06:54:34.133Z,100.00
2022-09-12T06:56:38.937Z,100.00
2022-09-12T06:58:43.489Z,100.00
2022-09-12T07:00:46.991Z,100.00
2022-09-12T07:02:50.447Z,100.00
2022-09-12T07:04:54.495Z,100.00
2022-09-12T07:06:58.269Z,100.00
2022-09-12T07:09:03.424Z,100.00
2022-09-12T07:11:11.773Z,100.00
2022-09-12T07:13:15.455Z,100.00
2022-09-12T07:15:19.090Z,100.00
2022-09-12T07:17:22.830Z,100.00
2022-09-12T07:19:29.168Z,100.00
2022-09-12T07:21:32.602Z,100.00
2022-09-12T07:23:36.742Z,100.00
2022-09-12T07:25:40.473Z,100.00
2022-09-12T07:27:51.017Z,100.00
2022-09-12T07:29:54.975Z,100.00
2022-09-12T07:31:58.526Z,100.00
2022-09-12T07:34:02.175Z,100.00
2022-09-12T07:36:06.985Z,100.00
2022-09-12T07:38:11.149Z,100.00
2022-09-12T07:40:17.873Z,100.00
2022-09-12T07:42:21.545Z,100.00
2022-09-12T07:44:26.290Z,100.00
2022-09-12T07:46:34.391Z,100.00
2022-09-12T07:48:38.882Z,100.00
2022-09-12T07:50:45.123Z,100.00
2022-09-12T07:52:49.216Z,100.00
2022-09-12T07:54:53.153Z,100.00
2022-09-12T07:56:56.711Z,100.00
2022-09-12T07:59:00.233Z,100.00
2022-09-12T08:01:11.041Z,100.00
2022-09-12T08:03:14.687Z,100.00
2022-09-12T08:08:47.746Z,100.00
2022-09-12T08:10:51.413Z,100.00
2022-09-12T08:12:55.012Z,100.00
2022-09-12T08:14:58.561Z,100.00
2022-09-12T08:17:04.971Z,100.00
2022-09-12T08:19:08.604Z,100.00
2022-09-12T08:21:16.681Z,100.00
2022-09-12T08:23:22.423Z,100.00
2022-09-12T08:25:27.002Z,100.00
2022-09-12T08:27:31.352Z,100.00
2022-09-12T08:29:35.648Z,100.00
2022-09-12T08:31:39.266Z,100.00
2022-09-12T08:33:43.043Z,100.00
2022-09-12T08:35:49.672Z,100.00
2022-09-12T08:37:53.753Z,100.00
2022-09-12T08:39:58.144Z,100.00
2022-09-12T08:42:04.180Z,100.00
2022-09-12T08:44:17.015Z,100.00
2022-09-12T08:46:26.095Z,100.00
2022-09-12T08:48:33.125Z,100.00
2022-09-12T08:50:36.707Z,100.00
2022-09-12T08:53:04.352Z,100.00
2022-09-12T08:55:14.395Z,100.00
2022-09-12T08:57:18.274Z,100.00
2022-09-12T08:59:22.257Z,100.00
2022-09-12T09:01:40.275Z,100.00
2022-09-12T09:03:45.358Z,100.00
2022-09-12T09:06:11.920Z,100.00
2022-09-12T09:08:23.985Z,100.00
2022-09-12T09:10:42.848Z,100.00
2022-09-12T09:12:51.373Z,100.00
2022-09-12T09:15:06.269Z,100.00
2022-09-12T09:17:16.786Z,100.00
2022-09-12T09:19:22.914Z,100.00
2022-09-12T09:21:58.183Z,100.00
2022-09-12T09:24:13.284Z,100.00
2022-09-12T09:26:19.318Z,100.00
2022-09-12T09:28:43.761Z,100.00
2022-09-12T09:30:48.023Z,100.00
2022-09-12T09:32:59.508Z,100.00
2022-09-12T09:35:04.343Z,100.00
2022-09-12T09:37:29.695Z,100.00
2022-09-12T09:39:41.943Z,100.00
2022-09-12T09:41:48.068Z,100.00
2022-09-12T09:43:51.864Z,100.00
2022-09-12T09:45:58.778Z,100.00
2022-09-12T09:48:17.023Z,100.00
2022-09-12T09:50:23.025Z,100.00
2022-09-12T09:52:29.668Z,100.00
2022-09-12T09:54:37.862Z,100.00
2022-09-12T09:56:44.687Z,100.00
2022-09-12T09:58:48.105Z,100.00
2022-09-12T10:00:54.901Z,100.00
2022-09-12T10:03:08.258Z,100.00
2022-09-12T10:05:21.413Z,100.00
2022-09-12T10:07:25.271Z,100.00
2022-09-12T10:09:30.203Z,100.00
2022-09-12T10:11:34.037Z,100.00
2022-09-12T10:13:42.680Z,100.00
2022-09-12T10:15:58.226Z,100.00
2022-09-12T10:18:04.288Z,100.00
2022-09-12T10:20:27.824Z,100.00
2022-09-12T10:22:31.330Z,100.00
2022-09-12T10:24:39.268Z,100.00
2022-09-12T10:26:44.244Z,100.00
2022-09-12T10:28:53.412Z,100.00
2022-09-12T10:31:02.623Z,100.00
2022-09-12T10:33:12.340Z,100.00
2022-09-12T10:35:20.979Z,100.00
2022-09-12T10:37:36.169Z,100.00
2022-09-12T10:39:40.338Z,100.00
2022-09-12T10:41:44.255Z,100.00
2022-09-12T10:43:48.431Z,100.00
2022-09-12T10:45:52.979Z,100.00
2022-09-12T10:48:02.080Z,100.00
2022-09-12T10:50:23.011Z,100.00
2022-09-12T10:52:28.413Z,100.00
2022-09-12T10:54:32.105Z,100.00
2022-09-12T10:56:48.488Z,100.00
2022-09-12T10:59:04.416Z,100.00
2022-09-12T11:01:20.243Z,100.00
2022-09-12T11:03:26.080Z,100.00
2022-09-12T11:05:37.572Z,100.00
2022-09-12T11:07:41.040Z,100.00
2022-09-12T11:09:47.365Z,100.00
2022-09-12T11:11:57.724Z,100.00
2022-09-12T11:14:04.646Z,100.00
2022-09-12T11:16:27.400Z,100.00
2022-09-12T11:18:46.056Z,100.00
2022-09-12T11:21:11.101Z,100.00
2022-09-12T11:23:32.143Z,100.00
2022-09-12T11:25:48.097Z,100.00
2022-09-12T11:28:01.372Z,100.00
2022-09-12T11:30:05.220Z,100.00
2022-09-12T11:32:27.283Z,100.00
2022-09-12T11:34:54.484Z,100.00
2022-09-12T11:37:10.956Z,100.00
2022-09-12T11:39:49.622Z,100.00
2022-09-12T11:42:01.338Z,100.00
2022-09-12T11:44:23.260Z,100.00
2022-09-12T11:46:32.803Z,100.00
2022-09-12T11:48:44.984Z,100.00
2022-09-12T11:50:48.625Z,100.00
2022-09-12T11:52:52.932Z,100.00
2022-09-12T11:55:05.084Z,100.00
2022-09-12T11:57:20.757Z,100.00
2022-09-12T11:59:44.376Z,100.00
2022-09-12T12:01:51.622Z,100.00
2022-09-12T12:03:58.144Z,100.00
2022-09-12T12:06:12.789Z,100.00
2022-09-12T12:08:16.891Z,100.00
2022-09-12T12:10:36.372Z,100.00
2022-09-12T12:12:40.548Z,100.00
2022-09-12T12:14:46.565Z,100.00
2022-09-12T12:16:51.062Z,100.00
2022-09-12T12:18:59.234Z,100.00
2022-09-12T12:21:18.341Z,100.00
2022-09-12T12:23:29.658Z,100.00
2022-09-12T12:25:52.786Z,100.00
2022-09-12T12:28:02.468Z,100.00
2022-09-12T12:30:26.172Z,100.00
2022-09-12T12:32:29.776Z,100.00
2022-09-12T12:34:33.455Z,100.00
2022-09-12T12:36:39.491Z,100.00
2022-09-12T12:38:46.831Z,100.00
2022-09-12T12:40:55.406Z,100.00
2022-09-12T12:43:01.533Z,100.00
2022-09-12T12:45:24.836Z,100.00
2022-09-12T12:47:32.417Z,100.00
2022-09-12T12:49:36.244Z,100.00
2022-09-12T12:52:09.542Z,100.00
2022-09-12T12:54:28.776Z,100.00
2022-09-12T12:56:42.396Z,100.00
2022-09-12T12:58:49.588Z,100.00
2022-09-12T13:01:13.417Z,100.00
2022-09-12T13:03:25.319Z,100.00
2022-09-12T13:05:33.551Z,100.00
2022-09-12T13:07:39.124Z,100.00
2022-09-12T13:09:49.192Z,100.00
2022-09-12T13:12:05.218Z,100.00
2022-09-12T13:14:28.523Z,100.00
2022-09-12T13:16:33.723Z,100.00
2022-09-12T13:18:43.189Z,100.00
2022-09-12T13:20:49.585Z,100.00
2022-09-12T13:22:56.577Z,100.00
2022-09-12T13:25:00.674Z,100.00
2022-09-12T13:27:04.402Z,100.00
2022-09-12T13:29:17.264Z,99.78
2022-09-12T13:31:26.345Z,100.00
2022-09-12T13:33:59.151Z,98.98
2022-09-12T13:36:12.249Z,98.44
2022-09-12T13:38:24.714Z,96.39
2022-09-12T13:40:28.430Z,95.20
2022-09-12T13:42:32.128Z,93.77
2022-09-12T13:44:42.834Z,93.42
2022-09-12T13:46:46.816Z,93.10
2022-09-12T13:48:50.721Z,92.36
2022-09-12T13:51:01.922Z,91.99
2022-09-12T13:53:13.349Z,90.44
2022-09-12T13:55:30.261Z,91.05
2022-09-12T13:57:33.721Z,90.93
2022-09-12T13:59:41.263Z,89.62
2022-09-12T14:01:49.202Z,88.50
2022-09-12T14:04:12.132Z,88.10
2022-09-12T14:06:17.543Z,86.23
2022-09-12T14:08:21.337Z,86.83
2022-09-12T14:10:27.888Z,85.13
2022-09-12T14:12:44.386Z,85.60
2022-09-12T14:14:51.004Z,84.62
2022-09-12T14:16:55.961Z,83.47
2022-09-12T14:19:00.801Z,81.97
2022-09-12T14:21:11.687Z,83.43
2022-09-12T14:23:32.221Z,81.51
2022-09-12T14:25:42.795Z,82.98
2022-09-12T14:27:52.682Z,80.76
2022-09-12T14:30:03.553Z,80.11
2022-09-12T14:32:25.008Z,79.34
2022-09-12T14:34:28.909Z,78.80
2022-09-12T14:36:35.423Z,81.25
2022-09-12T14:38:43.047Z,77.95
2022-09-12T14:40:49.790Z,77.72
2022-09-12T14:42:56.914Z,76.34
2022-09-12T14:45:04.105Z,74.85
2022-09-12T14:47:21.490Z,73.55
2022-09-12T14:49:29.098Z,70.89
2022-09-12T14:51:35.257Z,71.65
2022-09-12T14:53:39.659Z,70.66
2022-09-12T14:55:46.324Z,70.21
2022-09-12T14:58:08.681Z,69.37
2022-09-12T15:00:15.928Z,71.27
2022-09-12T15:02:27.023Z,71.28
2022-09-12T15:04:44.048Z,68.18
2022-09-12T15:06:51.747Z,66.11
2022-09-12T15:08:56.551Z,64.99
2022-09-12T15:11:00.090Z,63.67
2022-09-12T15:13:10.071Z,62.75
2022-09-12T15:15:21.571Z,63.73
2022-09-12T15:17:25.307Z,62.13
2022-09-12T15:19:29.452Z,61.50
2022-09-12T15:21:33.210Z,58.54
2022-09-12T15:23:39.334Z,57.32
2022-09-12T15:25:43.029Z,57.19
2022-09-12T15:27:47.076Z,60.08
2022-09-12T15:29:50.676Z,53.69
2022-09-12T15:31:54.189Z,53.42
2022-09-12T15:33:58.530Z,53.36
2022-09-12T15:36:01.887Z,54.79
2022-09-12T15:38:05.469Z,54.00
2022-09-12T15:40:09.647Z,52.92
2022-09-12T15:42:13.959Z,51.52
2022-09-12T15:44:17.526Z,53.59
2022-09-12T15:46:21.334Z,49.42
2022-09-12T15:48:25.529Z,51.52
2022-09-12T15:50:29.981Z,48.84
2022-09-12T15:52:34.693Z,49.35
2022-09-12T15:54:38.319Z,48.18
2022-09-12T15:56:42.409Z,50.83
2022-09-12T15:58:58.319Z,48.94
2022-09-12T16:01:03.520Z,47.02
2022-09-12T16:03:07.549Z,48.37
2022-09-12T16:05:19.127Z,42.65
2022-09-12T16:07:22.640Z,47.62
2022-09-12T16:09:26.146Z,45.71
2022-09-12T16:11:29.902Z,45.52
2022-09-12T16:13:33.669Z,40.24
2022-09-12T16:15:38.782Z,40.36
2022-09-12T16:17:45.457Z,40.36
2022-09-12T16:19:52.190Z,39.50
2022-09-12T16:21:56.055Z,38.38
2022-09-12T16:24:00.103Z,41.82
2022-09-12T16:26:05.386Z,41.35
2022-09-12T16:28:08.757Z,41.20
2022-09-12T16:30:12.403Z,41.69
2022-09-12T16:32:16.207Z,38.77
2022-09-12T16:34:19.725Z,38.72
2022-09-12T16:36:23.470Z,38.47
2022-09-12T16:38:27.297Z,37.77
2022-09-12T16:40:32.436Z,37.49
2022-09-12T16:42:38.766Z,36.63
2022-09-12T16:44:44.778Z,37.15
2022-09-12T16:46:48.404Z,37.86
2022-09-12T16:48:53.855Z,38.13
2022-09-12T16:50:58.962Z,36.43
2022-09-12T16:53:02.803Z,34.17
2022-09-12T16:55:06.936Z,36.41
2022-09-12T16:57:11.609Z,36.82
2022-09-12T16:59:18.323Z,36.90
2022-09-12T17:01:23.272Z,34.13
2022-09-12T17:03:26.780Z,34.36
2022-09-12T17:05:31.494Z,33.44
2022-09-12T17:07:36.008Z,32.92
2022-09-12T17:09:39.846Z,35.38
2022-09-12T17:11:43.753Z,33.70
2022-09-12T17:14:05.911Z,31.12
2022-09-12T17:16:13.617Z,31.19
2022-09-12T17:18:17.471Z,31.21
2022-09-12T17:20:21.285Z,31.34
2022-09-12T17:22:24.901Z,31.17
2022-09-12T17:24:28.571Z,34.36
2022-09-12T17:26:32.617Z,31.20
2022-09-12T17:28:36.622Z,30.78
2022-09-12T17:30:40.053Z,31.12
2022-09-12T17:32:43.962Z,33.74
2022-09-12T17:34:47.637Z,33.71
2022-09-12T17:36:51.172Z,33.16
2022-09-12T17:38:55.428Z,30.63
2022-09-12T17:41:05.781Z,30.97
2022-09-12T17:43:09.842Z,31.81
2022-09-12T17:45:17.802Z,32.56
2022-09-12T17:47:22.139Z,28.33
2022-09-12T17:49:26.501Z,31.10
2022-09-12T17:51:32.298Z,27.50
2022-09-12T17:53:37.153Z,30.04
2022-09-12T17:55:42.033Z,29.80
2022-09-12T17:57:46.574Z,28.50
2022-09-12T17:59:50.484Z,28.23
2022-09-12T18:02:12.748Z,29.11
2022-09-12T18:04:16.745Z,29.13
2022-09-12T18:06:20.345Z,29.90
2022-09-12T18:08:25.107Z,30.16
2022-09-12T18:10:28.875Z,27.96
2022-09-12T18:12:33.171Z,31.56
2022-09-12T18:14:39.726Z,30.28
2022-09-12T18:16:46.281Z,28.98
2022-09-12T18:18:52.135Z,29.01
2022-09-12T18:20:58.509Z,27.57
2022-09-12T18:23:02.403Z,27.94
2022-09-12T18:25:06.297Z,28.85
2022-09-12T18:27:12.897Z,27.47
2022-09-12T18:29:21.137Z,28.87
2022-09-12T18:31:26.649Z,30.66
2022-09-12T18:33:30.522Z,28.94
2022-09-12T18:35:34.339Z,31.39
2022-09-12T18:37:38.144Z,30.43
2022-09-12T18:39:41.726Z,29.19
2022-09-12T18:41:45.986Z,28.11
2022-09-12T18:43:50.422Z,28.65
2022-09-12T18:45:54.100Z,28.97
2022-09-12T18:47:58.974Z,27.78
2022-09-12T18:50:05.705Z,27.06
2022-09-12T18:52:11.881Z,27.72
2022-09-12T18:54:16.444Z,29.30
2022-09-12T18:56:20.805Z,28.54
2022-09-12T18:58:24.621Z,27.69
2022-09-12T19:00:28.815Z,27.65
2022-09-12T19:02:32.408Z,26.67
2022-09-12T19:04:36.314Z,27.53
2022-09-12T19:06:44.762Z,29.57
2022-09-12T19:08:49.246Z,28.87
2022-09-12T19:10:56.453Z,27.28
2022-09-12T19:13:02.547Z,29.31
2022-09-12T19:15:06.434Z,26.90
2022-09-12T19:17:11.217Z,30.96
2022-09-12T19:19:15.003Z,28.36
2022-09-12T19:21:19.815Z,27.76
2022-09-12T19:23:23.839Z,26.12
2022-09-12T19:25:27.852Z,28.13
2022-09-12T19:27:31.249Z,26.93
2022-09-12T19:29:35.317Z,26.57
2022-09-12T19:31:41.606Z,26.92
2022-09-12T19:33:45.739Z,26.36
2022-09-12T19:35:50.055Z,26.79
2022-09-12T19:37:53.785Z,26.15
2022-09-12T19:39:57.734Z,29.05
2022-09-12T19:42:01.569Z,26.42
2022-09-12T19:44:05.909Z,26.36
2022-09-12T19:46:10.055Z,27.19
2022-09-12T19:48:14.173Z,27.29
2022-09-12T19:50:17.842Z,27.41
2022-09-12T19:52:24.371Z,27.12
2022-09-12T19:54:28.446Z,26.14
2022-09-12T19:56:31.984Z,26.17
2022-09-12T19:58:39.840Z,25.37
2022-09-12T20:00:43.437Z,28.39
2022-09-12T20:02:50.766Z,24.97
2022-09-12T20:04:54.619Z,25.71
2022-09-12T20:06:58.206Z,25.94
2022-09-12T20:09:01.683Z,26.82
2022-09-12T20:11:05.930Z,27.02
2022-09-12T20:13:09.961Z,26.18
2022-09-12T20:15:14.304Z,24.95
2022-09-12T20:17:18.440Z,27.09
2022-09-12T20:19:22.817Z,26.25
2022-09-12T20:21:32.334Z,25.04
2022-09-12T20:23:36.300Z,26.21
2022-09-12T20:25:40.031Z,25.79
2022-09-12T20:27:44.076Z,24.96
2022-09-12T20:29:47.546Z,24.78
2022-09-12T20:31:51.551Z,24.40
2022-09-12T20:33:55.607Z,24.76
2022-09-12T20:36:03.085Z,24.32
2022-09-12T20:38:06.691Z,24.83
2022-09-12T20:40:10.767Z,26.04
2022-09-12T20:42:16.757Z,25.22
2022-09-12T20:44:20.505Z,23.83
2022-09-12T20:46:24.960Z,24.42
2022-09-12T20:48:28.889Z,24.14
2022-09-12T20:50:32.332Z,24.51
2022-09-12T20:52:36.294Z,24.43
2022-09-12T20:54:39.926Z,24.04
2022-09-12T20:56:43.968Z,25.64
2022-09-12T20:58:47.604Z,22.92
2022-09-12T21:00:51.561Z,23.74
2022-09-12T21:02:55.310Z,25.97
2022-09-12T21:04:59.226Z,24.87
2022-09-12T21:07:03.632Z,23.02
2022-09-12T21:09:08.720Z,22.11
2022-09-12T21:11:15.213Z,24.23
2022-09-12T21:13:18.852Z,23.09
2022-09-12T21:15:22.539Z,23.05
2022-09-12T21:17:26.078Z,22.61
2022-09-12T21:19:29.609Z,22.37
2022-09-12T21:21:33.626Z,23.05
2022-09-12T21:23:37.309Z,23.69
2022-09-12T21:25:40.942Z,23.41
2022-09-12T21:27:47.823Z,25.20
2022-09-12T21:29:51.474Z,22.53
2022-09-12T21:31:55.158Z,23.59
2022-09-12T21:33:58.794Z,22.40
2022-09-12T21:36:07.016Z,23.09
2022-09-12T21:38:10.573Z,25.56
2022-09-12T21:40:14.235Z,22.97
2022-09-12T21:42:17.872Z,22.93
2022-09-12T21:44:21.494Z,23.33
2022-09-12T21:46:27.928Z,23.14
2022-09-12T21:48:31.810Z,22.79
2022-09-12T21:50:35.404Z,22.18
2022-09-12T21:52:39.258Z,22.88
2022-09-12T21:54:42.907Z,22.19
2022-09-12T21:56:46.485Z,23.09
2022-09-12T21:58:50.171Z,22.62
2022-09-12T22:00:54.631Z,22.88
2022-09-12T22:02:59.042Z,23.21
2022-09-12T22:05:02.928Z,22.67
2022-09-12T22:07:06.818Z,21.54
2022-09-12T22:09:10.887Z,21.86
2022-09-12T22:11:15.040Z,22.20
2022-09-12T22:13:19.083Z,21.98
2022-09-12T22:15:41.641Z,22.83
2022-09-12T22:17:45.650Z,22.38
2022-09-12T22:19:49.806Z,22.19
2022-09-12T22:22:12.209Z,23.19
2022-09-12T22:24:30.983Z,23.69
2022-09-12T22:26:42.990Z,22.71
2022-09-12T22:28:48.495Z,22.47
2022-09-12T22:30:52.332Z,22.37
2022-09-12T22:32:55.948Z,22.19
2022-09-12T22:34:59.943Z,21.30
2022-09-12T22:37:03.972Z,21.83
2022-09-12T22:39:08.030Z,21.90
2022-09-12T22:41:13.037Z,22.88
2022-09-12T22:43:16.727Z,22.49
2022-09-12T22:45:21.090Z,22.62
2022-09-12T22:47:24.726Z,21.73
2022-09-12T22:49:28.480Z,22.58
2022-09-12T22:51:32.085Z,22.15
2022-09-12T22:53:36.653Z,22.73
2022-09-12T22:55:40.316Z,23.36
2022-09-12T22:57:44.229Z,22.82
2022-09-12T22:59:47.829Z,24.09
2022-09-12T23:01:51.509Z,25.09
2022-09-12T23:03:55.149Z,24.89
2022-09-12T23:05:58.619Z,25.79
2022-09-12T23:08:02.556Z,24.92
2022-09-12T23:10:06.351Z,25.21
2022-09-12T23:12:10.836Z,25.40
2022-09-12T23:14:14.974Z,26.99
2022-09-12T23:16:26.090Z,26.13
2022-09-12T23:18:30.918Z,28.45
2022-09-12T23:20:35.001Z,26.52
2022-09-12T23:22:38.722Z,27.33
2022-09-12T23:24:42.752Z,27.99
2022-09-12T23:26:46.302Z,28.37
2022-09-12T23:28:51.686Z,27.86
2022-09-12T23:30:57.014Z,27.52
2022-09-12T23:33:02.272Z,29.25
2022-09-12T23:35:09.186Z,29.74
2022-09-12T23:37:12.785Z,30.50
2022-09-12T23:39:16.640Z,29.57
2022-09-12T23:41:20.211Z,30.00
2022-09-12T23:43:24.211Z,32.32
2022-09-12T23:45:27.865Z,32.64
2022-09-12T23:47:31.489Z,31.47
2022-09-12T23:49:35.485Z,30.55
2022-09-12T23:51:39.013Z,30.16
2022-09-12T23:53:42.893Z,30.98
2022-09-12T23:55:46.509Z,29.83
2022-09-12T23:57:49.833Z,30.25
2022-09-12T23:59:53.623Z,32.43
